createdAt,value
2023-02-25T00:01:26.437Z,66.42
2023-02-25T00:06:23.897Z,68.75
2023-02-25T00:11:22.111Z,70.85
2023-02-25T00:16:16.895Z,75.87
2023-02-25T00:18:46.138Z,71.22
2023-02-25T00:21:16.245Z,70.35
2023-02-25T00:23:48.891Z,63.80
2023-02-25T00:26:17.932Z,52.90
2023-02-25T00:28:47.869Z,57.53
2023-02-25T00:33:50.164Z,51.05
2023-02-25T00:38:51.238Z,53.78
2023-02-25T00:43:52.410Z,55.90
2023-02-25T00:46:21.281Z,55.38
2023-02-25T00:48:50.213Z,51.30
2023-02-25T00:51:22.022Z,52.83
2023-02-25T00:53:55.359Z,57.20
2023-02-25T00:56:25.679Z,53.20
2023-02-25T01:01:31.172Z,45.00
2023-02-25T01:03:59.992Z,50.30
2023-02-25T01:06:30.217Z,46.80
2023-02-25T01:08:59.638Z,44.20
2023-02-25T01:14:01.650Z,42.60
2023-02-25T01:19:02.016Z,42.33
2023-02-25T01:21:34.910Z,42.67
2023-02-25T01:24:13.683Z,44.50
2023-02-25T01:26:45.294Z,44.18
2023-02-25T01:29:17.668Z,42.73
2023-02-25T01:34:15.689Z,49.73
2023-02-25T01:39:10.641Z,48.25
2023-02-25T01:44:16.679Z,47.45
2023-02-25T01:46:48.592Z,42.08
2023-02-25T01:49:24.497Z,40.45
2023-02-25T01:51:56.567Z,44.63
2023-02-25T01:54:24.292Z,35.50
2023-02-25T01:56:55.422Z,39.60
2023-02-25T01:59:27.242Z,40.35
2023-02-25T02:04:22.121Z,38.02
2023-02-25T02:09:22.902Z,34.70
2023-02-25T02:11:51.588Z,37.50
2023-02-25T02:14:24.648Z,36.25
2023-02-25T02:17:24.688Z,29.63
2023-02-25T02:20:12.609Z,28.73
2023-02-25T02:25:52.318Z,33.00
2023-02-25T02:28:59.453Z,26.62
2023-02-25T02:31:50.680Z,30.65
2023-02-25T02:34:54.228Z,26.15
2023-02-25T02:40:29.917Z,31.65
2023-02-25T02:43:21.098Z,29.92
2023-02-25T02:46:25.225Z,28.10
2023-02-25T02:49:16.309Z,30.75
2023-02-25T02:52:01.819Z,29.48
2023-02-25T02:57:04.711Z,35.68
2023-02-25T03:02:03.994Z,34.15
2023-02-25T03:04:36.404Z,36.40
2023-02-25T03:07:07.964Z,34.73
2023-02-25T03:09:55.141Z,35.33
2023-02-25T03:12:24.609Z,40.95
2023-02-25T03:14:52.333Z,47.13
2023-02-25T03:17:25.094Z,46.37
2023-02-25T03:23:13.405Z,48.75
2023-02-25T03:25:49.229Z,49.42
2023-02-25T03:30:50.483Z,49.30
2023-02-25T03:36:33.275Z,45.90
2023-02-25T03:39:06.645Z,53.52
2023-02-25T03:41:38.889Z,55.30
2023-02-25T03:46:33.985Z,40.88
2023-02-25T03:51:35.140Z,41.05
2023-02-25T03:56:46.495Z,39.70
2023-02-25T03:59:15.370Z,37.60
2023-02-25T04:01:46.862Z,36.17
2023-02-25T04:04:15.382Z,34.38
2023-02-25T04:06:43.074Z,38.55
2023-02-25T04:09:10.987Z,31.12
2023-02-25T04:11:38.759Z,32.73
2023-02-25T04:14:06.695Z,32.42
2023-02-25T04:16:34.505Z,32.05
2023-02-25T04:19:02.898Z,36.17
2023-02-25T04:21:36.240Z,33.20
2023-02-25T04:24:06.300Z,33.67
2023-02-25T04:26:34.838Z,28.73
2023-02-25T04:29:03.503Z,37.08
2023-02-25T04:31:31.518Z,36.30
2023-02-25T04:33:59.449Z,33.28
2023-02-25T04:36:33.939Z,33.08
2023-02-25T04:39:05.073Z,37.28
2023-02-25T04:41:35.348Z,34.05
2023-02-25T04:44:04.721Z,35.73
2023-02-25T04:49:06.520Z,33.15
2023-02-25T04:51:34.656Z,35.65
2023-02-25T04:54:02.065Z,36.13
2023-02-25T04:56:29.881Z,32.53
2023-02-25T04:58:58.335Z,36.60
2023-02-25T05:01:26.357Z,38.13
2023-02-25T05:03:56.203Z,36.73
2023-02-25T05:06:28.391Z,39.38
2023-02-25T05:08:58.083Z,42.43
2023-02-25T05:11:29.893Z,30.80
2023-02-25T05:13:57.912Z,42.33
2023-02-25T05:16:26.982Z,38.38
2023-02-25T05:18:55.354Z,40.92
2023-02-25T05:21:25.894Z,36.10
2023-02-25T05:23:54.499Z,39.67
2023-02-25T05:26:25.068Z,37.65
2023-02-25T05:28:55.833Z,35.13
2023-02-25T05:31:25.584Z,32.08
2023-02-25T05:33:53.579Z,29.85
2023-02-25T05:36:21.489Z,35.13
2023-02-25T05:38:49.597Z,37.13
2023-02-25T05:41:17.186Z,40.23
2023-02-25T05:43:45.562Z,34.88
2023-02-25T05:46:14.557Z,32.45
2023-02-25T05:48:47.753Z,33.42
2023-02-25T05:51:18.759Z,44.27
2023-02-25T05:53:48.569Z,37.83
2023-02-25T05:56:21.940Z,41.77
2023-02-25T05:58:50.317Z,38.35
2023-02-25T06:01:22.305Z,41.53
2023-02-25T06:03:55.939Z,53.13
2023-02-25T06:06:29.620Z,38.65
2023-02-25T06:08:57.552Z,46.30
2023-02-25T06:11:29.709Z,48.83
2023-02-25T06:13:58.701Z,53.95
2023-02-25T06:16:44.035Z,67.78
2023-02-25T06:19:25.894Z,54.53
2023-02-25T06:21:56.060Z,52.75
2023-02-25T06:24:24.392Z,61.00
2023-02-25T06:26:52.303Z,73.75
2023-02-25T06:29:19.847Z,61.35
2023-02-25T06:31:50.666Z,57.65
2023-02-25T06:34:18.797Z,59.13
2023-02-25T06:36:46.741Z,50.90
2023-02-25T06:39:14.699Z,56.33
2023-02-25T06:41:42.502Z,53.33
2023-02-25T06:44:10.599Z,49.50
2023-02-25T06:46:38.345Z,51.92
2023-02-25T06:49:06.223Z,53.83
2023-02-25T06:51:36.296Z,55.92
2023-02-25T06:54:04.619Z,54.80
2023-02-25T06:56:32.405Z,81.47
2023-02-25T06:59:00.304Z,63.17
2023-02-25T07:01:28.264Z,57.15
2023-02-25T07:03:56.345Z,75.85
2023-02-25T07:06:24.621Z,69.85
2023-02-25T07:08:52.659Z,70.08
2023-02-25T07:11:28.502Z,79.10
2023-02-25T07:13:57.138Z,72.25
2023-02-25T07:16:25.554Z,72.20
2023-02-25T07:18:53.539Z,90.53
2023-02-25T07:21:22.569Z,83.25
2023-02-25T07:23:50.661Z,69.42
2023-02-25T07:26:18.473Z,66.90
2023-02-25T07:28:47.747Z,70.22
2023-02-25T07:31:19.093Z,64.95
2023-02-25T07:33:48.008Z,64.00
2023-02-25T07:36:16.154Z,57.88
2023-02-25T07:38:44.501Z,51.00
2023-02-25T07:41:16.606Z,72.12
2023-02-25T07:43:45.131Z,59.33
2023-02-25T07:46:13.276Z,77.37
2023-02-25T07:48:41.174Z,89.90
2023-02-25T07:51:16.678Z,82.90
2023-02-25T07:53:53.004Z,78.33
2023-02-25T07:56:22.939Z,63.75
2023-02-25T07:58:50.914Z,56.45
2023-02-25T08:01:25.929Z,45.65
2023-02-25T08:04:00.839Z,36.48
2023-02-25T08:06:28.828Z,39.83
2023-02-25T08:08:56.886Z,34.23
2023-02-25T08:11:27.078Z,32.50
2023-02-25T08:13:55.503Z,31.77
2023-02-25T08:16:23.207Z,32.98
2023-02-25T08:18:52.496Z,35.95
2023-02-25T08:21:23.230Z,34.48
2023-02-25T08:23:54.761Z,33.38
2023-02-25T08:26:25.018Z,36.33
2023-02-25T08:28:55.754Z,38.63
2023-02-25T08:31:23.956Z,31.02
2023-02-25T08:33:53.208Z,37.23
2023-02-25T08:36:26.245Z,41.35
2023-02-25T08:38:56.971Z,40.08
2023-02-25T08:41:27.101Z,40.10
2023-02-25T08:46:26.721Z,48.38
2023-02-25T08:51:24.233Z,44.42
2023-02-25T08:56:18.320Z,44.03
2023-02-25T08:58:46.243Z,43.25
2023-02-25T09:01:16.640Z,46.02
2023-02-25T09:03:53.638Z,50.73
2023-02-25T09:08:55.167Z,55.43
2023-02-25T09:13:52.980Z,55.08
2023-02-25T09:16:21.324Z,59.45
2023-02-25T09:18:51.059Z,53.95
2023-02-25T09:21:19.710Z,64.58
2023-02-25T09:23:47.875Z,68.70
2023-02-25T09:26:15.868Z,55.55
2023-02-25T09:28:44.115Z,56.77
2023-02-25T09:31:12.365Z,58.17
2023-02-25T09:33:42.225Z,61.73
2023-02-25T09:36:16.914Z,64.65
2023-02-25T09:38:46.930Z,61.90
2023-02-25T09:41:31.192Z,49.13
2023-02-25T09:44:07.860Z,66.30
2023-02-25T09:49:08.708Z,70.42
2023-02-25T09:51:40.766Z,93.82
2023-02-25T09:54:20.605Z,105.87
2023-02-25T09:56:49.985Z,84.37
2023-02-25T09:59:20.978Z,59.63
2023-02-25T10:01:56.963Z,55.38
2023-02-25T10:04:39.394Z,40.12
2023-02-25T10:07:25.086Z,41.68
2023-02-25T10:10:09.750Z,41.63
2023-02-25T10:15:57.534Z,33.65
2023-02-25T10:21:53.978Z,26.75
2023-02-25T10:24:48.497Z,19.42
2023-02-25T10:27:39.117Z,24.32
2023-02-25T10:30:32.337Z,27.05
2023-02-25T10:33:08.469Z,37.48
2023-02-25T10:35:39.493Z,31.80
2023-02-25T10:38:10.086Z,26.20
2023-02-25T10:46:25.016Z,22.32
2023-02-25T10:49:00.155Z,21.80
2023-02-25T10:54:00.008Z,23.10
2023-02-25T10:56:44.516Z,10.98
2023-02-25T11:01:43.537Z,10.65
2023-02-25T11:04:15.594Z,11.40
2023-02-25T11:06:44.411Z,12.75
2023-02-25T11:09:26.475Z,8.58
2023-02-25T11:12:11.407Z,7.78
2023-02-25T11:14:39.594Z,11.67
2023-02-25T11:17:18.888Z,9.15
2023-02-25T11:22:25.870Z,9.85
2023-02-25T11:25:01.896Z,7.37
2023-02-25T11:27:39.811Z,8.60
2023-02-25T11:30:25.328Z,8.28
2023-02-25T11:38:29.379Z,12.88
2023-02-25T11:40:57.542Z,7.87
2023-02-25T11:43:35.360Z,6.33
2023-02-25T11:46:23.608Z,7.20
2023-02-25T11:49:16.062Z,2.90
2023-02-25T11:51:59.277Z,4.33
2023-02-25T11:54:47.631Z,5.15
2023-02-25T12:03:02.033Z,7.53
2023-02-25T12:05:50.524Z,10.90
2023-02-25T12:08:49.760Z,7.35
2023-02-25T12:11:44.289Z,15.55
2023-02-25T12:14:44.534Z,7.58
2023-02-25T12:20:05.280Z,6.33
2023-02-25T12:22:53.089Z,5.72
2023-02-25T12:25:33.253Z,3.95
2023-02-25T12:28:26.106Z,5.05
2023-02-25T12:31:14.459Z,4.67
2023-02-25T12:34:22.963Z,7.28
2023-02-25T12:43:24.479Z,9.43
2023-02-25T12:46:26.445Z,11.53
2023-02-25T12:49:14.886Z,6.75
2023-02-25T12:51:56.848Z,6.25
2023-02-25T12:55:08.300Z,7.05
2023-02-25T12:57:58.780Z,4.83
2023-02-25T13:03:28.394Z,4.45
2023-02-25T13:06:23.220Z,6.00
2023-02-25T13:12:30.591Z,12.03
2023-02-25T13:15:06.946Z,4.60
2023-02-25T13:18:00.947Z,6.50
2023-02-25T13:20:52.823Z,5.53
2023-02-25T13:24:04.376Z,8.33
2023-02-25T13:29:27.782Z,5.95
2023-02-25T13:32:26.400Z,6.70
2023-02-25T13:35:17.763Z,7.22
2023-02-25T13:40:48.051Z,4.37
2023-02-25T13:43:42.378Z,5.87
2023-02-25T13:46:37.489Z,8.60
2023-02-25T13:49:40.009Z,6.50
2023-02-25T13:52:45.147Z,8.05
2023-02-25T13:55:30.664Z,5.97
2023-02-25T14:01:53.935Z,5.53
2023-02-25T14:05:02.323Z,5.03
2023-02-25T14:11:01.630Z,7.95
2023-02-25T14:16:20.616Z,11.08
2023-02-25T14:19:10.904Z,8.03
2023-02-25T14:22:08.622Z,6.50
2023-02-25T14:25:00.276Z,4.12
2023-02-25T14:27:54.352Z,6.70
2023-02-25T14:33:35.185Z,8.40
2023-02-25T14:36:37.340Z,8.68
2023-02-25T14:39:43.932Z,7.85
2023-02-25T14:42:41.213Z,4.83
2023-02-25T14:45:14.883Z,4.90
2023-02-25T14:51:01.434Z,10.25
2023-02-25T14:53:51.559Z,5.90
2023-02-25T14:56:58.552Z,5.50
2023-02-25T14:59:41.292Z,7.90
2023-02-25T15:02:40.635Z,5.67
2023-02-25T15:08:20.280Z,19.70
2023-02-25T15:14:25.859Z,7.97
2023-02-25T15:19:40.280Z,16.17
2023-02-25T15:22:24.704Z,33.13
2023-02-25T15:25:15.046Z,42.48
2023-02-25T15:30:23.414Z,11.88
2023-02-25T15:33:08.650Z,14.68
2023-02-25T15:35:41.911Z,19.50
2023-02-25T15:38:24.005Z,9.43
2023-02-25T15:43:30.684Z,8.25
2023-02-25T15:46:13.320Z,9.80
2023-02-25T15:48:42.654Z,32.60
2023-02-25T15:53:45.008Z,39.88
2023-02-25T16:01:42.265Z,20.52
2023-02-25T16:04:42.834Z,18.82
2023-02-25T16:07:15.326Z,17.65
2023-02-25T16:12:16.946Z,43.63
2023-02-25T16:14:45.779Z,36.55
2023-02-25T16:22:33.268Z,81.12
2023-02-25T16:28:08.400Z,45.50
2023-02-25T16:30:44.652Z,46.57
2023-02-25T16:39:06.156Z,48.45
2023-02-25T16:41:38.658Z,40.30
2023-02-25T16:44:04.426Z,39.90
2023-02-25T16:46:41.018Z,52.30
2023-02-25T16:49:13.289Z,54.30
2023-02-25T16:54:14.385Z,44.85
2023-02-25T16:56:45.800Z,50.20
2023-02-25T17:01:56.383Z,47.35
2023-02-25T17:04:36.774Z,42.70
2023-02-25T17:07:17.156Z,37.42
2023-02-25T17:09:49.244Z,33.28
2023-02-25T17:14:50.856Z,39.13
2023-02-25T17:17:38.186Z,35.92
2023-02-25T17:22:54.086Z,34.13
2023-02-25T17:25:32.128Z,35.80
2023-02-25T17:27:59.762Z,28.73
2023-02-25T17:30:37.210Z,18.02
2023-02-25T17:35:33.274Z,28.85
2023-02-25T17:38:02.251Z,31.25
2023-02-25T17:40:30.106Z,42.60
2023-02-25T17:43:39.366Z,33.42
2023-02-25T17:46:32.749Z,44.98
2023-02-25T17:49:23.019Z,49.35
2023-02-25T17:52:05.343Z,52.08
2023-02-25T17:54:36.672Z,42.62
2023-02-25T17:57:18.040Z,21.15
2023-02-25T18:02:46.190Z,56.55
2023-02-25T18:07:47.088Z,71.20
2023-02-25T18:10:34.988Z,38.28
2023-02-25T18:13:05.032Z,29.00
2023-02-25T18:15:33.794Z,24.98
2023-02-25T18:18:05.379Z,24.80
2023-02-25T18:20:43.476Z,44.15
2023-02-25T18:23:27.191Z,36.15
2023-02-25T18:26:24.007Z,19.52
2023-02-25T18:28:53.174Z,18.40
2023-02-25T18:31:21.826Z,16.65
2023-02-25T18:33:50.144Z,18.20
2023-02-25T18:36:27.536Z,16.85
2023-02-25T18:38:59.821Z,18.55
2023-02-25T18:43:54.186Z,21.68
2023-02-25T18:46:22.369Z,29.63
2023-02-25T18:48:49.258Z,29.82
2023-02-25T18:51:17.697Z,30.90
2023-02-25T18:53:46.271Z,29.55
2023-02-25T18:56:17.772Z,31.93
2023-02-25T18:58:48.681Z,63.28
2023-02-25T19:01:26.498Z,67.25
2023-02-25T19:03:56.353Z,112.62
2023-02-25T19:06:27.534Z,45.20
2023-02-25T19:08:55.373Z,48.65
2023-02-25T19:11:31.037Z,34.30
2023-02-25T19:16:26.079Z,11.38
2023-02-25T19:18:53.995Z,31.05
2023-02-25T19:21:22.257Z,29.20
2023-02-25T19:23:53.437Z,48.90
2023-02-25T19:26:21.926Z,24.27
2023-02-25T20:00:18.019Z,82.82
2023-02-25T20:31:18.860Z,48.45
2023-02-25T20:33:53.799Z,48.38
2023-02-25T20:36:28.953Z,48.10
2023-02-25T20:42:41.180Z,97.05
2023-02-25T20:45:14.949Z,83.78
2023-02-25T20:47:43.267Z,68.20
2023-02-25T20:50:17.880Z,43.13
2023-02-25T20:52:45.839Z,62.03
2023-02-25T20:55:13.781Z,46.35
2023-02-25T20:57:43.408Z,52.17
2023-02-25T21:00:17.272Z,42.95
2023-02-25T21:02:49.164Z,48.87
2023-02-25T21:05:18.805Z,54.03
2023-02-25T21:07:46.622Z,51.80
2023-02-25T21:10:20.937Z,40.23
2023-02-25T21:14:00.879Z,40.03
2023-02-25T21:15:51.347Z,20.45
2023-02-25T21:18:25.471Z,16.75
2023-02-25T21:21:07.229Z,20.65
2023-02-25T21:23:36.578Z,25.25
2023-02-25T21:26:06.630Z,25.17
2023-02-25T21:28:35.524Z,26.10
2023-02-25T21:31:08.408Z,29.57
2023-02-25T21:33:37.600Z,34.00
2023-02-25T21:36:07.719Z,64.72
2023-02-25T21:38:36.818Z,49.67
2023-02-25T21:41:10.097Z,44.90
2023-02-25T21:43:38.927Z,56.63
2023-02-25T21:46:12.164Z,36.30
2023-02-25T21:48:42.286Z,33.25
2023-02-25T21:51:17.682Z,42.03
2023-02-25T21:53:45.584Z,32.65
2023-02-25T21:56:16.746Z,43.00
2023-02-25T21:58:45.636Z,23.15
2023-02-25T22:01:21.048Z,24.43
2023-02-25T22:03:49.411Z,31.00
2023-02-25T22:06:18.576Z,32.88
2023-02-25T22:08:46.460Z,31.27
2023-02-25T22:11:18.995Z,31.73
2023-02-25T22:13:47.820Z,45.67
2023-02-25T22:16:20.805Z,38.30
2023-02-25T22:18:49.829Z,38.75
2023-02-25T22:21:21.543Z,39.55
2023-02-25T22:23:51.600Z,25.48
2023-02-25T22:26:22.955Z,24.07
2023-02-25T22:28:54.374Z,43.15
2023-02-25T22:31:22.364Z,40.90
2023-02-25T22:33:50.436Z,47.23
2023-02-25T22:36:19.615Z,48.30
2023-02-25T22:38:49.673Z,47.75
2023-02-25T22:41:27.735Z,53.10
2023-02-25T22:43:57.942Z,46.25
2023-02-25T22:46:33.150Z,41.50
2023-02-25T22:49:00.843Z,42.85
2023-02-25T22:51:35.716Z,40.45
2023-02-25T22:54:04.563Z,35.83
2023-02-25T22:56:32.648Z,27.22
2023-02-25T22:59:01.158Z,27.70
2023-02-25T23:01:29.033Z,19.23
2023-02-25T23:03:57.126Z,15.68
2023-02-25T23:06:42.225Z,15.93
2023-02-25T23:08:59.114Z,13.08
2023-02-25T23:11:31.180Z,17.82
2023-02-25T23:14:00.981Z,13.35
2023-02-25T23:16:38.667Z,11.68
2023-02-25T23:19:09.361Z,13.72
2023-02-25T23:21:40.620Z,12.75
2023-02-25T23:24:12.341Z,10.13
2023-02-25T23:26:41.877Z,10.55
2023-02-25T23:29:11.982Z,15.50
2023-02-25T23:31:47.237Z,9.33
2023-02-25T23:36:46.798Z,7.90
2023-02-25T23:39:15.908Z,10.10
2023-02-25T23:41:43.926Z,8.65
2023-02-25T23:44:13.489Z,7.17
2023-02-25T23:46:42.630Z,7.08
2023-02-25T23:49:13.581Z,10.65
2023-02-25T23:51:46.439Z,10.15
2023-02-25T23:54:17.512Z,6.15
2023-02-25T23:56:45.646Z,5.40
2023-02-25T23:59:13.889Z,5.30
